createdAt,value
2018-07-12T00:00:40.469Z,81.96
2018-07-12T00:01:40.477Z,81.96
2018-07-12T00:02:40.480Z,82.24
2018-07-12T00:03:40.523Z,82.34
2018-07-12T00:04:40.534Z,81.86
2018-07-12T00:05:40.501Z,81.76
2018-07-12T00:06:40.543Z,81.67
2018-07-12T00:07:40.535Z,82.43
2018-07-12T00:08:40.566Z,81.76
2018-07-12T00:09:40.598Z,82.15
2018-07-12T00:10:40.567Z,81.57
2018-07-12T00:11:40.589Z,82.63
2018-07-12T00:12:40.608Z,82.43
2018-07-12T00:13:40.611Z,81.96
2018-07-12T00:14:40.672Z,81.86
2018-07-12T00:15:40.635Z,81.67
2018-07-12T00:16:40.653Z,81.76
2018-07-12T00:17:40.665Z,81.96
2018-07-12T00:18:40.666Z,81.86
2018-07-12T00:19:40.714Z,82.53
2018-07-12T00:20:40.689Z,81.86
2018-07-12T00:21:40.705Z,81.48
2018-07-12T00:22:40.712Z,81.76
2018-07-12T00:23:40.739Z,81.86
2018-07-12T00:24:40.771Z,81.96
2018-07-12T00:25:40.751Z,81.86
2018-07-12T00:26:40.768Z,81.86
2018-07-12T00:27:40.850Z,81.96
2018-07-12T00:28:40.788Z,81.86
2018-07-12T00:29:40.797Z,82.15
2018-07-12T00:30:40.812Z,81.96
2018-07-12T00:31:40.822Z,81.76
2018-07-12T00:32:40.874Z,81.86
2018-07-12T00:33:40.911Z,81.96
2018-07-12T00:34:40.863Z,82.38
2018-07-12T00:35:40.863Z,81.71
2018-07-12T00:36:40.902Z,81.99
2018-07-12T00:37:40.889Z,81.42
2018-07-12T00:38:40.934Z,81.57
2018-07-12T00:39:40.929Z,81.57
2018-07-12T00:40:40.961Z,81.52
2018-07-12T00:41:40.947Z,81.81
2018-07-12T00:42:40.958Z,82.24
2018-07-12T00:43:40.960Z,81.99
2018-07-12T00:44:40.973Z,82.09
2018-07-12T00:45:41.030Z,81.99
2018-07-12T00:46:41.011Z,81.71
2018-07-12T00:47:41.022Z,82.09
2018-07-12T00:48:41.084Z,81.61
2018-07-12T00:49:41.062Z,81.61
2018-07-12T00:50:41.047Z,81.52
2018-07-12T00:51:41.071Z,81.71
2018-07-12T00:52:41.099Z,81.32
2018-07-12T00:53:41.173Z,81.52
2018-07-12T00:54:41.113Z,81.81
2018-07-12T00:55:41.100Z,81.61
2018-07-12T00:56:41.121Z,81.61
2018-07-12T00:57:41.146Z,81.71
2018-07-12T00:58:41.173Z,81.52
2018-07-12T00:59:41.167Z,81.61
2018-07-12T01:00:41.192Z,81.42
2018-07-12T01:01:41.188Z,81.52
2018-07-12T01:02:41.223Z,81.90
2018-07-12T01:03:41.202Z,81.71
2018-07-12T01:04:41.221Z,81.81
2018-07-12T01:05:41.227Z,81.90
2018-07-12T01:06:41.236Z,81.81
2018-07-12T01:07:41.279Z,81.99
2018-07-12T01:08:41.271Z,82.19
2018-07-12T01:09:41.287Z,82.48
2018-07-12T01:10:41.311Z,82.29
2018-07-12T01:11:41.326Z,82.29
2018-07-12T01:12:41.314Z,81.61
2018-07-12T01:13:41.332Z,82.29
2018-07-12T01:14:41.383Z,81.99
2018-07-12T01:15:41.378Z,81.42
2018-07-12T01:16:41.368Z,82.38
2018-07-12T01:17:41.371Z,82.86
2018-07-12T01:18:41.393Z,82.38
2018-07-12T01:19:41.423Z,82.76
2018-07-12T01:20:41.407Z,82.29
2018-07-12T01:21:41.419Z,82.19
2018-07-12T01:22:41.451Z,82.09
2018-07-12T01:23:41.442Z,82.38
2018-07-12T01:24:41.496Z,82.76
2018-07-12T01:25:41.475Z,82.19
2018-07-12T01:26:41.495Z,82.96
2018-07-12T01:27:41.497Z,82.48
2018-07-12T01:28:41.510Z,82.76
2018-07-12T01:29:41.574Z,82.29
2018-07-12T01:30:41.531Z,82.57
2018-07-12T01:31:41.589Z,82.76
2018-07-12T01:32:41.598Z,82.86
2018-07-12T01:33:41.580Z,82.38
2018-07-12T01:34:41.582Z,82.76
2018-07-12T01:35:41.597Z,82.86
2018-07-12T01:36:41.604Z,82.86
2018-07-12T01:37:41.632Z,82.76
2018-07-12T01:38:41.673Z,82.48
2018-07-12T01:39:41.644Z,83.15
2018-07-12T01:40:41.648Z,82.86
2018-07-12T01:41:41.670Z,82.76
2018-07-12T01:42:41.665Z,82.67
2018-07-12T01:43:41.706Z,82.96
2018-07-12T01:44:41.731Z,83.15
2018-07-12T01:45:41.705Z,83.15
2018-07-12T01:46:41.712Z,82.76
2018-07-12T01:47:41.735Z,82.76
2018-07-12T01:48:41.764Z,82.86
2018-07-12T01:49:41.835Z,82.86
2018-07-12T01:50:41.763Z,82.86
2018-07-12T01:51:41.783Z,82.86
2018-07-12T01:52:41.802Z,83.34
2018-07-12T01:53:41.793Z,83.34
2018-07-12T01:54:41.848Z,83.06
2018-07-12T01:55:41.840Z,82.96
2018-07-12T01:56:41.850Z,82.76
2018-07-12T01:57:41.855Z,82.96
2018-07-12T01:58:41.872Z,83.06
2018-07-12T01:59:41.890Z,82.57
2018-07-12T02:00:41.905Z,83.25
2018-07-12T02:01:41.897Z,83.06
2018-07-12T02:02:41.908Z,83.34
2018-07-12T02:03:41.951Z,82.96
2018-07-12T02:04:41.929Z,82.76
2018-07-12T02:05:41.980Z,82.96
2018-07-12T02:06:41.964Z,82.86
2018-07-12T02:07:41.987Z,82.96
2018-07-12T02:08:41.978Z,82.96
2018-07-12T02:09:42.018Z,83.06
2018-07-12T02:10:42.048Z,83.34
2018-07-12T02:11:42.019Z,83.34
2018-07-12T02:12:42.037Z,83.06
2018-07-12T02:13:42.070Z,82.43
2018-07-12T02:14:42.058Z,83.11
2018-07-12T02:15:42.092Z,83.11
2018-07-12T02:16:42.148Z,82.73
2018-07-12T02:17:42.117Z,83.30
2018-07-12T02:18:42.111Z,82.53
2018-07-12T02:19:42.168Z,82.82
2018-07-12T02:20:42.177Z,82.73
2018-07-12T02:21:42.188Z,82.92
2018-07-12T02:22:42.155Z,83.11
2018-07-12T02:23:42.153Z,82.92
2018-07-12T02:24:42.189Z,83.30
2018-07-12T02:25:42.210Z,83.20
2018-07-12T02:26:42.213Z,83.30
2018-07-12T02:27:42.281Z,83.30
2018-07-12T02:28:42.243Z,83.59
2018-07-12T02:29:42.228Z,83.49
2018-07-12T02:30:42.234Z,83.11
2018-07-12T02:31:42.258Z,83.40
2018-07-12T02:32:42.289Z,83.49
2018-07-12T02:33:42.265Z,83.40
2018-07-12T02:34:42.290Z,83.30
2018-07-12T02:35:42.315Z,83.20
2018-07-12T02:36:42.302Z,83.20
2018-07-12T02:37:42.352Z,83.78
2018-07-12T02:38:42.351Z,83.20
2018-07-12T02:39:42.372Z,83.40
2018-07-12T02:40:42.363Z,83.40
2018-07-12T02:41:42.376Z,83.59
2018-07-12T02:42:42.418Z,83.30
2018-07-12T02:43:42.388Z,83.64
2018-07-12T02:44:42.403Z,83.64
2018-07-12T02:45:42.436Z,83.40
2018-07-12T02:46:42.440Z,83.26
2018-07-12T02:47:42.436Z,83.54
2018-07-12T02:48:42.438Z,83.64
2018-07-12T02:49:42.473Z,83.54
2018-07-12T02:50:42.521Z,83.45
2018-07-12T02:51:42.500Z,83.64
2018-07-12T02:52:42.501Z,83.69
2018-07-12T02:53:42.525Z,83.54
2018-07-12T02:54:42.521Z,83.64
2018-07-12T02:55:42.559Z,84.03
2018-07-12T02:56:42.549Z,84.03
2018-07-12T02:57:42.565Z,84.03
2018-07-12T02:58:42.613Z,83.54
2018-07-12T02:59:42.598Z,83.84
2018-07-12T03:00:42.589Z,83.64
2018-07-12T03:01:42.642Z,83.45
2018-07-12T03:02:42.637Z,83.54
2018-07-12T03:03:42.694Z,83.54
2018-07-12T03:04:42.692Z,83.74
2018-07-12T03:05:42.647Z,83.64
2018-07-12T03:06:42.695Z,83.64
2018-07-12T03:07:42.674Z,83.64
2018-07-12T03:08:42.673Z,83.93
2018-07-12T03:09:42.735Z,83.84
2018-07-12T03:10:42.735Z,83.74
2018-07-12T03:11:42.714Z,83.93
2018-07-12T03:12:42.733Z,83.93
2018-07-12T03:13:42.747Z,83.54
2018-07-12T03:14:42.748Z,83.64
2018-07-12T03:15:42.800Z,83.93
2018-07-12T03:16:42.774Z,83.84
2018-07-12T03:17:42.786Z,83.84
2018-07-12T03:18:42.798Z,83.84
2018-07-12T03:19:42.798Z,84.12
2018-07-12T03:20:42.864Z,83.84
2018-07-12T03:21:42.827Z,83.84
2018-07-12T03:22:42.889Z,84.03
2018-07-12T03:23:42.861Z,83.74
2018-07-12T03:24:42.880Z,83.84
2018-07-12T03:25:42.913Z,83.93
2018-07-12T03:26:42.920Z,84.22
2018-07-12T03:27:42.954Z,83.93
2018-07-12T03:28:42.909Z,83.84
2018-07-12T03:29:42.925Z,84.12
2018-07-12T03:30:42.928Z,84.41
2018-07-12T03:31:42.944Z,84.12
2018-07-12T03:32:42.993Z,84.22
2018-07-12T03:33:42.968Z,83.84
2018-07-12T03:34:42.994Z,83.84
2018-07-12T03:35:43.043Z,83.84
2018-07-12T03:36:43.005Z,84.12
2018-07-12T03:37:43.046Z,84.22
2018-07-12T03:38:43.019Z,84.31
2018-07-12T03:39:43.040Z,84.22
2018-07-12T03:40:43.040Z,84.41
2018-07-12T03:41:43.056Z,84.31
2018-07-12T03:42:43.106Z,84.12
2018-07-12T03:43:43.096Z,84.22
2018-07-12T03:44:43.112Z,84.22
2018-07-12T03:45:43.186Z,84.12
2018-07-12T03:46:43.185Z,84.31
2018-07-12T03:47:43.165Z,83.93
2018-07-12T03:48:43.143Z,84.12
2018-07-12T03:49:43.155Z,84.22
2018-07-12T03:50:43.167Z,84.31
2018-07-12T03:51:43.217Z,84.41
2018-07-12T03:52:43.192Z,83.93
2018-07-12T03:53:43.216Z,84.22
2018-07-12T03:54:43.270Z,84.31
2018-07-12T03:55:43.249Z,84.22
2018-07-12T03:56:43.273Z,84.31
2018-07-12T03:57:43.252Z,84.22
2018-07-12T03:58:43.249Z,84.03
2018-07-12T03:59:43.312Z,84.12
2018-07-12T04:00:43.276Z,84.03
2018-07-12T04:01:43.295Z,84.51
2018-07-12T04:02:43.298Z,83.54
2018-07-12T04:03:43.412Z,83.54
2018-07-12T04:04:43.361Z,84.12
2018-07-12T04:05:43.377Z,84.31
2018-07-12T04:06:43.350Z,84.22
2018-07-12T04:07:43.381Z,84.31
2018-07-12T04:08:43.389Z,84.60
2018-07-12T04:09:43.379Z,83.93
2018-07-12T04:10:43.421Z,84.41
2018-07-12T04:11:43.420Z,84.22
2018-07-12T04:12:43.411Z,84.70
2018-07-12T04:13:43.473Z,84.22
2018-07-12T04:14:43.435Z,84.31
2018-07-12T04:15:43.466Z,84.60
2018-07-12T04:16:43.472Z,84.51
2018-07-12T04:17:43.503Z,84.70
2018-07-12T04:18:43.541Z,84.31
2018-07-12T04:19:43.497Z,84.51
2018-07-12T04:20:43.509Z,84.80
2018-07-12T04:21:43.529Z,84.66
2018-07-12T04:22:43.587Z,84.51
2018-07-12T04:23:43.550Z,85.08
2018-07-12T04:24:43.564Z,84.95
2018-07-12T04:25:43.566Z,85.24
2018-07-12T04:26:43.581Z,84.89
2018-07-12T04:27:43.622Z,85.33
2018-07-12T04:28:43.613Z,85.08
2018-07-12T04:29:43.676Z,84.85
2018-07-12T04:30:43.625Z,85.24
2018-07-12T04:31:43.644Z,84.85
2018-07-12T04:32:43.650Z,85.57
2018-07-12T04:33:43.682Z,84.47
2018-07-12T04:34:43.746Z,85.14
2018-07-12T04:35:43.688Z,84.95
2018-07-12T04:36:43.695Z,85.14
2018-07-12T04:37:43.777Z,84.95
2018-07-12T04:38:43.745Z,84.75
2018-07-12T04:39:43.782Z,84.95
2018-07-12T04:40:43.761Z,85.04
2018-07-12T04:41:43.761Z,85.14
2018-07-12T04:42:43.771Z,85.14
2018-07-12T04:43:43.776Z,84.85
2018-07-12T04:44:43.814Z,85.33
2018-07-12T04:45:43.801Z,85.14
2018-07-12T04:46:43.853Z,84.85
2018-07-12T04:47:43.826Z,85.24
2018-07-12T04:48:43.828Z,85.04
2018-07-12T04:49:43.846Z,85.04
2018-07-12T04:50:43.854Z,85.52
2018-07-12T04:51:43.924Z,85.81
2018-07-12T04:52:43.912Z,85.71
2018-07-12T04:53:43.901Z,85.71
2018-07-12T04:54:43.895Z,85.62
2018-07-12T04:55:43.907Z,85.62
2018-07-12T04:56:43.979Z,85.62
2018-07-12T04:57:43.976Z,85.71
2018-07-12T04:58:43.952Z,85.62
2018-07-12T04:59:43.962Z,85.52
2018-07-12T05:00:43.961Z,85.42
2018-07-12T05:01:43.994Z,85.42
2018-07-12T05:02:44.058Z,86.00
2018-07-12T05:03:44.006Z,85.33
2018-07-12T05:04:44.010Z,85.14
2018-07-12T05:05:44.020Z,85.81
2018-07-12T05:06:44.041Z,85.62
2018-07-12T05:07:44.093Z,85.62
2018-07-12T05:08:44.093Z,85.62
2018-07-12T05:09:44.086Z,85.33
2018-07-12T05:10:44.090Z,85.19
2018-07-12T05:11:44.098Z,85.77
2018-07-12T05:12:44.110Z,86.05
2018-07-12T05:13:44.186Z,85.86
2018-07-12T05:14:44.133Z,85.67
2018-07-12T05:15:44.148Z,85.58
2018-07-12T05:16:44.142Z,85.77
2018-07-12T05:17:44.162Z,85.86
2018-07-12T05:18:44.208Z,85.86
2018-07-12T05:19:44.209Z,86.15
2018-07-12T05:20:44.216Z,86.34
2018-07-12T05:21:44.199Z,85.96
2018-07-12T05:22:44.253Z,86.44
2018-07-12T05:23:44.225Z,86.15
2018-07-12T05:24:44.266Z,86.25
2018-07-12T05:25:44.259Z,86.15
2018-07-12T05:26:44.260Z,86.63
2018-07-12T05:27:44.312Z,86.34
2018-07-12T05:28:44.292Z,86.44
2018-07-12T05:29:44.291Z,86.44
2018-07-12T05:30:44.326Z,86.49
2018-07-12T05:31:44.339Z,86.63
2018-07-12T05:32:44.374Z,86.68
2018-07-12T05:33:44.327Z,86.97
2018-07-12T05:34:44.347Z,86.78
2018-07-12T05:35:44.400Z,86.97
2018-07-12T05:36:44.386Z,86.88
2018-07-12T05:37:44.401Z,87.26
2018-07-12T05:38:44.434Z,87.16
2018-07-12T05:39:44.994Z,87.35
2018-07-12T05:40:44.417Z,86.88
2018-07-12T05:41:44.430Z,87.68
2018-07-12T05:42:44.455Z,87.40
2018-07-12T05:43:44.494Z,87.68
2018-07-12T05:44:44.458Z,87.78
2018-07-12T05:45:44.473Z,87.49
2018-07-12T05:46:44.563Z,88.07
2018-07-12T05:47:44.488Z,88.07
2018-07-12T05:48:44.522Z,88.31
2018-07-12T05:49:44.521Z,87.59
2018-07-12T05:50:44.525Z,87.98
2018-07-12T05:51:44.600Z,88.17
2018-07-12T05:52:44.545Z,88.26
2018-07-12T05:53:44.624Z,88.26
2018-07-12T05:54:44.613Z,88.35
2018-07-12T05:55:44.580Z,88.84
2018-07-12T05:56:44.592Z,88.93
2018-07-12T05:57:44.954Z,88.74
2018-07-12T05:58:44.625Z,88.74
2018-07-12T05:59:44.760Z,89.03
2018-07-12T06:00:44.659Z,89.03
2018-07-12T06:01:44.670Z,88.74
2018-07-12T06:02:44.676Z,89.41
2018-07-12T06:03:44.972Z,88.74
2018-07-12T06:04:44.805Z,88.65
2018-07-12T06:05:44.762Z,89.03
2018-07-12T06:06:44.707Z,89.70
2018-07-12T06:07:44.769Z,89.22
2018-07-12T06:08:44.778Z,88.93
2018-07-12T06:09:44.761Z,89.32
2018-07-12T06:10:44.768Z,89.79
2018-07-12T06:11:44.803Z,89.41
2018-07-12T06:12:44.800Z,89.75
2018-07-12T06:13:44.850Z,89.65
2018-07-12T06:14:44.797Z,89.55
2018-07-12T06:15:44.815Z,89.65
2018-07-12T06:16:44.854Z,89.51
2018-07-12T06:17:44.829Z,89.32
2018-07-12T06:18:44.836Z,89.36
2018-07-12T06:19:44.851Z,89.17
2018-07-12T06:20:44.855Z,89.84
2018-07-12T06:21:44.923Z,89.55
2018-07-12T06:22:45.051Z,89.55
2018-07-12T06:23:45.094Z,89.55
2018-07-12T06:24:45.101Z,89.84
2018-07-12T06:25:44.907Z,89.55
2018-07-12T06:26:44.944Z,89.46
2018-07-12T06:27:44.950Z,89.84
2018-07-12T06:28:44.962Z,89.65
2018-07-12T06:29:45.030Z,90.22
2018-07-12T06:30:44.976Z,89.46
2018-07-12T06:31:45.032Z,89.75
2018-07-12T06:32:44.985Z,89.65
2018-07-12T06:33:45.024Z,90.22
2018-07-12T06:34:45.020Z,89.65
2018-07-12T06:35:45.036Z,90.22
2018-07-12T06:36:45.062Z,89.94
2018-07-12T06:37:45.064Z,89.94
2018-07-12T06:38:45.088Z,90.03
2018-07-12T06:39:45.073Z,90.13
2018-07-12T06:40:45.086Z,90.22
2018-07-12T06:41:45.100Z,90.80
2018-07-12T06:42:45.110Z,90.99
2018-07-12T06:43:45.174Z,89.84
2018-07-12T06:44:45.150Z,90.03
2018-07-12T06:45:45.158Z,90.42
2018-07-12T06:46:45.169Z,90.42
2018-07-12T06:47:45.176Z,90.03
2018-07-12T06:48:45.237Z,90.32
2018-07-12T06:49:45.189Z,90.13
2018-07-12T06:50:45.201Z,90.84
2018-07-12T06:51:45.212Z,90.56
2018-07-12T06:52:45.267Z,89.98
2018-07-12T06:53:45.297Z,90.22
2018-07-12T06:54:45.273Z,90.22
2018-07-12T06:55:45.268Z,90.46
2018-07-12T06:56:45.277Z,90.27
2018-07-12T06:57:45.283Z,90.52
2018-07-12T06:58:45.349Z,90.32
2018-07-12T06:59:45.308Z,89.79
2018-07-12T07:00:45.436Z,90.56
2018-07-12T07:01:45.335Z,90.46
2018-07-12T07:02:45.335Z,90.46
2018-07-12T07:03:45.398Z,90.46
2018-07-12T07:04:45.396Z,90.75
2018-07-12T07:05:45.442Z,90.84
2018-07-12T07:06:45.419Z,90.08
2018-07-12T07:07:45.409Z,90.94
2018-07-12T07:08:45.428Z,91.04
2018-07-12T07:09:45.437Z,90.27
2018-07-12T07:10:45.477Z,90.22
2018-07-12T07:11:45.484Z,90.66
2018-07-12T07:12:45.458Z,90.56
2018-07-12T07:13:45.474Z,90.84
2018-07-12T07:14:45.547Z,90.99
2018-07-12T07:15:45.493Z,90.42
2018-07-12T07:16:45.534Z,90.70
2018-07-12T07:17:45.524Z,91.47
2018-07-12T07:18:45.525Z,90.56
2018-07-12T07:19:45.538Z,90.90
2018-07-12T07:20:45.560Z,91.28
2018-07-12T07:21:45.617Z,90.75
2018-07-12T07:22:45.575Z,91.23
2018-07-12T07:23:45.581Z,91.33
2018-07-12T07:24:45.589Z,91.23
2018-07-12T07:25:45.610Z,90.99
2018-07-12T07:26:45.647Z,91.33
2018-07-12T07:27:45.624Z,91.47
2018-07-12T07:28:45.635Z,91.38
2018-07-12T07:29:45.658Z,91.09
2018-07-12T07:30:45.667Z,91.66
2018-07-12T07:31:45.691Z,91.71
2018-07-12T07:32:45.736Z,91.28
2018-07-12T07:33:45.754Z,91.66
2018-07-12T07:34:45.716Z,90.99
2018-07-12T07:35:45.785Z,91.38
2018-07-12T07:36:45.722Z,91.76
2018-07-12T07:37:45.747Z,91.28
2018-07-12T07:38:45.780Z,92.33
2018-07-12T07:39:45.758Z,91.96
2018-07-12T07:40:45.791Z,92.53
2018-07-12T07:41:45.781Z,92.05
2018-07-12T07:42:45.796Z,93.10
2018-07-12T07:43:45.874Z,93.39
2018-07-12T07:44:45.834Z,93.77
2018-07-12T07:45:45.832Z,93.77
2018-07-12T07:46:45.839Z,94.64
2018-07-12T07:47:45.852Z,95.31
2018-07-12T07:48:45.922Z,95.21
2018-07-12T07:49:45.926Z,95.12
2018-07-12T07:50:45.903Z,95.89
2018-07-12T07:51:45.911Z,96.18
2018-07-12T07:52:45.909Z,96.47
2018-07-12T07:53:45.939Z,97.33
2018-07-12T07:54:46.007Z,97.52
2018-07-12T07:55:45.958Z,97.42
2018-07-12T07:56:45.970Z,97.81
2018-07-12T07:57:45.974Z,97.81
2018-07-12T07:58:45.982Z,98.48
2018-07-12T07:59:46.019Z,98.58
2018-07-12T08:00:46.067Z,98.48
2018-07-12T08:01:46.011Z,97.91
2018-07-12T08:02:46.023Z,98.67
2018-07-12T08:03:46.045Z,98.48
2018-07-12T08:04:46.054Z,98.96
2018-07-12T08:05:46.073Z,98.58
2018-07-12T08:06:46.102Z,99.92
2018-07-12T08:07:46.078Z,99.63
2018-07-12T08:08:46.097Z,99.73
2018-07-12T08:09:46.098Z,99.44
2018-07-12T08:10:46.118Z,98.58
2018-07-12T08:11:46.157Z,99.10
2018-07-12T08:12:46.186Z,99.39
2018-07-12T08:13:46.148Z,99.49
2018-07-12T08:14:46.156Z,99.77
2018-07-12T08:15:46.168Z,99.77
2018-07-12T08:16:46.262Z,99.39
2018-07-12T08:17:46.216Z,99.01
2018-07-12T08:18:46.214Z,99.87
2018-07-12T08:19:46.308Z,99.49
2018-07-12T08:20:46.237Z,99.29
2018-07-12T08:21:46.241Z,99.99
2018-07-12T08:22:46.253Z,99.10
2018-07-12T08:23:46.270Z,99.68
2018-07-12T08:24:46.305Z,99.58
2018-07-12T08:25:46.286Z,98.62
2018-07-12T08:26:46.304Z,98.82
2018-07-12T08:27:46.308Z,98.62
2018-07-12T08:28:46.360Z,99.68
2018-07-12T08:29:46.338Z,99.58
2018-07-12T08:30:46.387Z,98.14
2018-07-12T08:31:46.352Z,97.81
2018-07-12T08:32:46.379Z,98.62
2018-07-12T08:33:46.380Z,99.68
2018-07-12T08:34:46.426Z,99.82
2018-07-12T08:35:46.439Z,99.99
2018-07-12T08:36:46.408Z,99.63
2018-07-12T08:37:46.443Z,99.99
2018-07-12T08:38:46.423Z,99.49
2018-07-12T08:39:46.528Z,99.87
2018-07-12T08:40:46.479Z,99.99
2018-07-12T08:41:46.530Z,99.99
2018-07-12T08:42:46.540Z,99.99
2018-07-12T08:43:46.533Z,99.99
2018-07-12T08:44:46.496Z,99.99
2018-07-12T08:45:46.518Z,99.99
2018-07-12T08:46:46.551Z,99.99
2018-07-12T08:47:46.716Z,99.99
2018-07-12T08:48:46.541Z,99.99
2018-07-12T08:49:46.662Z,99.99
2018-07-12T08:50:46.552Z,99.99
2018-07-12T08:51:46.599Z,99.99
2018-07-12T08:52:46.604Z,99.99
2018-07-12T08:53:46.621Z,99.99
2018-07-12T08:54:46.670Z,99.99
2018-07-12T08:55:46.622Z,99.99
2018-07-12T08:56:46.626Z,99.99
2018-07-12T08:57:46.639Z,99.99
2018-07-12T08:58:46.706Z,99.99
2018-07-12T08:59:46.697Z,99.99
2018-07-12T09:00:46.677Z,99.99
2018-07-12T09:01:47.011Z,99.99
2018-07-12T09:02:46.728Z,99.99
2018-07-12T09:03:46.764Z,99.99
2018-07-12T09:04:46.721Z,99.99
2018-07-12T09:05:47.015Z,99.99
2018-07-12T09:06:46.738Z,99.99
2018-07-12T09:07:46.805Z,99.99
2018-07-12T09:08:46.759Z,99.99
2018-07-12T09:09:46.793Z,99.99
2018-07-12T09:10:46.821Z,99.99
2018-07-12T09:11:46.871Z,99.99
2018-07-12T09:12:46.845Z,99.99
2018-07-12T09:13:46.907Z,99.99
2018-07-12T09:14:46.834Z,99.99
2018-07-12T09:15:46.942Z,99.99
2018-07-12T09:16:46.865Z,99.99
2018-07-12T09:17:47.020Z,99.99
2018-07-12T09:18:46.881Z,99.99
2018-07-12T09:19:46.911Z,99.99
2018-07-12T09:20:46.889Z,99.99
2018-07-12T09:21:46.949Z,99.99
2018-07-12T09:22:46.910Z,99.99
2018-07-12T09:23:47.016Z,99.99
2018-07-12T09:24:46.938Z,99.99
2018-07-12T09:25:46.946Z,99.99
2018-07-12T09:26:46.975Z,99.99
2018-07-12T09:27:46.982Z,99.99
2018-07-12T09:28:47.018Z,99.99
2018-07-12T09:29:47.007Z,99.99
2018-07-12T09:30:47.041Z,99.99
2018-07-12T09:31:47.028Z,99.99
2018-07-12T09:32:47.026Z,99.99
2018-07-12T09:33:47.073Z,99.99
2018-07-12T09:34:47.076Z,99.99
2018-07-12T09:35:47.166Z,99.99
2018-07-12T09:36:47.067Z,99.99
2018-07-12T09:37:47.099Z,99.99
2018-07-12T09:38:47.122Z,99.99
2018-07-12T09:39:47.154Z,99.99
2018-07-12T09:40:47.128Z,99.99
2018-07-12T09:41:47.139Z,99.99
2018-07-12T09:42:47.135Z,99.99
2018-07-12T09:43:47.166Z,99.99
2018-07-12T09:44:47.215Z,99.99
2018-07-12T09:45:47.176Z,99.99
2018-07-12T09:46:47.214Z,99.99
2018-07-12T09:47:47.195Z,99.99
2018-07-12T09:48:47.229Z,99.99
2018-07-12T09:49:47.271Z,99.99
2018-07-12T09:50:47.256Z,99.99
2018-07-12T09:51:47.230Z,99.99
2018-07-12T09:52:47.267Z,99.99
2018-07-12T09:53:47.271Z,99.99
2018-07-12T09:54:47.456Z,99.99
2018-07-12T09:55:47.396Z,99.99
2018-07-12T09:56:47.987Z,99.99
2018-07-12T09:57:47.298Z,99.99
2018-07-12T09:58:47.321Z,99.99
2018-07-12T09:59:47.351Z,99.99
2018-07-12T10:00:47.367Z,99.99
2018-07-12T10:01:47.470Z,99.99
2018-07-12T10:02:47.357Z,99.99
2018-07-12T10:03:47.387Z,99.99
2018-07-12T10:04:47.377Z,99.99
2018-07-12T10:05:47.461Z,99.99
2018-07-12T10:06:47.441Z,99.99
2018-07-12T10:07:47.416Z,99.99
2018-07-12T10:08:48.575Z,99.99
2018-07-12T10:09:47.436Z,99.99
2018-07-12T10:10:47.469Z,99.99
2018-07-12T10:11:47.636Z,99.99
2018-07-12T10:12:47.494Z,99.99
2018-07-12T10:13:47.713Z,99.99
2018-07-12T10:14:47.532Z,99.99
2018-07-12T10:15:47.504Z,99.99
2018-07-12T10:16:47.542Z,99.99
2018-07-12T10:17:47.573Z,99.99
2018-07-12T10:18:47.571Z,99.99
2018-07-12T10:19:47.544Z,99.99
2018-07-12T10:20:47.566Z,99.99
2018-07-12T10:21:47.599Z,99.99
2018-07-12T10:22:47.586Z,99.99
2018-07-12T10:23:47.589Z,99.99
2018-07-12T10:24:47.620Z,99.99
2018-07-12T10:25:47.719Z,99.99
2018-07-12T10:26:47.627Z,99.99
2018-07-12T10:27:47.648Z,99.99
2018-07-12T10:28:47.650Z,99.99
2018-07-12T10:29:47.697Z,99.99
2018-07-12T10:30:47.674Z,99.99
2018-07-12T10:31:47.715Z,99.99
2018-07-12T10:32:47.682Z,99.99
2018-07-12T10:33:47.706Z,99.99
2018-07-12T10:34:47.724Z,99.99
2018-07-12T10:35:47.790Z,99.99
2018-07-12T10:36:47.793Z,99.99
2018-07-12T10:37:47.787Z,99.99
2018-07-12T10:38:47.772Z,99.99
2018-07-12T10:39:47.779Z,99.99
2018-07-12T10:40:47.817Z,99.99
2018-07-12T10:41:47.782Z,99.99
2018-07-12T10:42:47.836Z,99.99
2018-07-12T10:43:47.813Z,99.99
2018-07-12T10:44:47.837Z,99.99
2018-07-12T10:45:47.836Z,99.99
2018-07-12T10:46:47.865Z,99.99
2018-07-12T10:47:47.875Z,99.99
2018-07-12T10:48:47.899Z,99.99
2018-07-12T10:49:47.887Z,99.99
2018-07-12T10:50:47.910Z,99.99
2018-07-12T10:51:47.966Z,99.99
2018-07-12T10:52:47.912Z,99.99
2018-07-12T10:53:47.979Z,99.92
2018-07-12T10:54:47.945Z,99.99
2018-07-12T10:55:47.946Z,99.99
2018-07-12T10:56:47.964Z,99.99
2018-07-12T10:57:47.992Z,99.99
2018-07-12T10:58:48.068Z,99.54
2018-07-12T10:59:48.004Z,99.63
2018-07-12T11:00:48.060Z,99.99
2018-07-12T11:01:48.040Z,99.99
2018-07-12T11:02:48.025Z,99.99
2018-07-12T11:03:48.116Z,99.99
2018-07-12T11:04:48.070Z,99.99
2018-07-12T11:05:48.150Z,99.99
2018-07-12T11:06:48.089Z,99.99
2018-07-12T11:07:48.109Z,99.99
2018-07-12T11:08:48.203Z,99.99
2018-07-12T11:09:48.122Z,99.68
2018-07-12T11:10:48.155Z,99.99
2018-07-12T11:11:48.184Z,99.99
2018-07-12T11:12:48.157Z,99.99
2018-07-12T11:13:48.220Z,99.40
2018-07-12T11:14:48.185Z,99.01
2018-07-12T11:15:48.226Z,99.99
2018-07-12T11:16:48.274Z,99.01
2018-07-12T11:17:48.218Z,99.99
2018-07-12T11:18:48.222Z,99.49
2018-07-12T11:19:48.296Z,99.99
2018-07-12T11:20:48.244Z,99.58
2018-07-12T11:21:48.290Z,99.58
2018-07-12T11:22:48.337Z,99.49
2018-07-12T11:23:48.275Z,99.99
2018-07-12T11:24:48.312Z,99.10
2018-07-12T11:25:48.311Z,99.30
2018-07-12T11:26:48.326Z,98.53
2018-07-12T11:27:48.368Z,98.96
2018-07-12T11:28:48.383Z,99.83
2018-07-12T11:29:48.357Z,99.99
2018-07-12T11:30:48.627Z,99.25
2018-07-12T11:31:48.365Z,98.48
2018-07-12T11:32:48.470Z,99.35
2018-07-12T11:33:48.422Z,99.44
2018-07-12T11:34:48.436Z,99.63
2018-07-12T11:35:48.435Z,99.44
2018-07-12T11:36:48.434Z,98.48
2018-07-12T11:37:48.468Z,99.73
2018-07-12T11:38:48.470Z,99.44
2018-07-12T11:39:48.522Z,99.25
2018-07-12T11:40:48.516Z,98.77
2018-07-12T11:41:48.558Z,99.25
2018-07-12T11:42:48.506Z,99.54
2018-07-12T11:43:48.539Z,99.25
2018-07-12T11:44:48.584Z,98.68
2018-07-12T11:45:48.595Z,98.00
2018-07-12T11:46:48.550Z,98.58
2018-07-12T11:47:48.617Z,98.58
2018-07-12T11:48:48.639Z,98.39
2018-07-12T11:49:48.598Z,98.86
2018-07-12T11:50:48.657Z,98.48
2018-07-12T11:51:48.615Z,97.81
2018-07-12T11:52:48.715Z,99.63
2018-07-12T11:53:48.655Z,99.83
2018-07-12T11:54:48.666Z,99.44
2018-07-12T11:55:48.759Z,98.96
2018-07-12T11:56:48.682Z,98.48
2018-07-12T11:57:48.679Z,98.77
2018-07-12T11:58:48.758Z,98.39
2018-07-12T11:59:48.721Z,97.71
2018-07-12T12:00:48.716Z,98.39
2018-07-12T12:01:48.845Z,97.91
2018-07-12T12:02:48.765Z,98.96
2018-07-12T12:03:48.805Z,97.24
2018-07-12T12:04:48.798Z,99.99
2018-07-12T12:05:48.783Z,98.10
2018-07-12T12:06:48.886Z,97.91
2018-07-12T12:07:48.811Z,98.58
2018-07-12T12:08:48.840Z,98.68
2018-07-12T12:09:49.020Z,98.39
2018-07-12T12:10:48.863Z,97.52
2018-07-12T12:11:48.865Z,98.19
2018-07-12T12:12:48.927Z,97.42
2018-07-12T12:13:48.889Z,98.10
2018-07-12T12:14:48.895Z,98.58
2018-07-12T12:15:48.893Z,98.19
2018-07-12T12:16:49.267Z,97.81
2018-07-12T12:17:48.977Z,98.19
2018-07-12T12:18:49.010Z,98.48
2018-07-12T12:19:48.946Z,98.58
2018-07-12T12:20:48.962Z,97.62
2018-07-12T12:21:48.997Z,97.81
2018-07-12T12:22:49.000Z,98.48
2018-07-12T12:23:49.021Z,99.15
2018-07-12T12:24:49.068Z,98.96
2018-07-12T12:25:49.061Z,98.86
2018-07-12T12:26:49.263Z,99.73
2018-07-12T12:27:49.087Z,99.35
2018-07-12T12:28:49.076Z,99.92
2018-07-12T12:29:49.112Z,99.15
2018-07-12T12:30:49.129Z,99.06
2018-07-12T12:31:49.208Z,98.48
2018-07-12T12:32:49.111Z,99.15
2018-07-12T12:33:49.112Z,99.92
2018-07-12T12:34:49.110Z,99.92
2018-07-12T12:35:49.194Z,99.54
2018-07-12T12:36:49.180Z,99.25
2018-07-12T12:37:49.181Z,99.25
2018-07-12T12:38:49.185Z,98.68
2018-07-12T12:39:49.197Z,98.77
2018-07-12T12:40:49.241Z,99.35
2018-07-12T12:41:49.209Z,98.29
2018-07-12T12:42:49.420Z,98.39
2018-07-12T12:43:49.248Z,98.00
2018-07-12T12:44:49.241Z,97.71
2018-07-12T12:45:49.269Z,99.63
2018-07-12T12:46:49.276Z,98.39
2018-07-12T12:47:49.359Z,98.58
2018-07-12T12:48:49.286Z,98.39
2018-07-12T12:49:49.290Z,98.77
2018-07-12T12:50:49.326Z,98.00
2018-07-12T12:51:49.356Z,98.34
2018-07-12T12:52:49.370Z,97.33